createdAt,value
2023-01-31T00:01:53.103Z,73.00
2023-01-31T00:05:35.106Z,73.00
2023-01-31T00:09:16.783Z,73.00
2023-01-31T00:12:58.417Z,73.00
2023-01-31T00:16:40.056Z,73.00
2023-01-31T00:20:21.709Z,73.00
2023-01-31T00:24:05.654Z,73.00
2023-01-31T00:27:47.278Z,73.00
2023-01-31T00:31:30.176Z,73.00
2023-01-31T00:35:11.865Z,73.00
2023-01-31T00:38:54.633Z,73.00
2023-01-31T00:42:36.324Z,73.00
2023-01-31T00:46:20.359Z,73.00
2023-01-31T00:50:02.139Z,73.00
2023-01-31T00:53:43.784Z,73.00
2023-01-31T00:57:25.365Z,73.00
2023-01-31T01:01:10.114Z,73.00
2023-01-31T01:04:51.773Z,73.00
2023-01-31T01:08:34.588Z,73.00
2023-01-31T01:12:16.267Z,73.00
2023-01-31T01:15:57.916Z,73.60
2023-01-31T01:19:39.770Z,72.90
2023-01-31T01:23:21.444Z,73.00
2023-01-31T01:27:05.047Z,73.00
2023-01-31T01:30:46.660Z,73.00
2023-01-31T01:34:28.417Z,72.90
2023-01-31T01:38:10.767Z,73.00
2023-01-31T01:41:52.582Z,72.90
2023-01-31T01:45:34.310Z,73.00
2023-01-31T01:49:19.797Z,72.90
2023-01-31T01:53:21.858Z,72.90
2023-01-31T01:57:04.460Z,73.00
2023-01-31T02:00:46.610Z,73.60
2023-01-31T02:04:30.938Z,72.90
2023-01-31T02:08:15.319Z,73.00
2023-01-31T02:11:57.644Z,72.90
2023-01-31T02:15:39.377Z,73.00
2023-01-31T02:19:32.974Z,73.00
2023-01-31T02:23:25.046Z,72.90
2023-01-31T02:27:25.605Z,73.00
2023-01-31T02:31:26.588Z,73.00
2023-01-31T02:35:08.196Z,72.90
2023-01-31T02:38:53.697Z,72.90
2023-01-31T02:42:43.576Z,72.90
2023-01-31T02:46:33.133Z,72.90
2023-01-31T02:50:17.914Z,72.90
2023-01-31T02:54:02.531Z,72.90
2023-01-31T02:57:45.172Z,72.90
2023-01-31T03:01:31.757Z,72.90
2023-01-31T03:05:14.897Z,72.90
2023-01-31T03:08:56.480Z,72.90
2023-01-31T03:12:44.256Z,72.90
2023-01-31T03:16:56.327Z,72.90
2023-01-31T03:20:38.015Z,72.90
2023-01-31T03:24:20.418Z,72.90
2023-01-31T03:28:06.342Z,72.90
2023-01-31T03:31:59.017Z,72.90
2023-01-31T03:35:41.629Z,72.90
2023-01-31T03:39:23.219Z,72.90
2023-01-31T03:43:28.065Z,72.90
2023-01-31T03:47:18.647Z,73.50
2023-01-31T03:51:01.504Z,72.90
2023-01-31T03:54:48.003Z,72.90
2023-01-31T03:58:31.611Z,72.90
2023-01-31T04:02:14.176Z,72.90
2023-01-31T04:05:56.353Z,72.90
2023-01-31T04:09:38.754Z,72.90
2023-01-31T04:13:22.004Z,72.90
2023-01-31T04:17:03.633Z,72.90
2023-01-31T04:20:45.268Z,72.90
2023-01-31T04:24:26.926Z,72.90
2023-01-31T04:28:08.523Z,72.90
2023-01-31T04:31:50.236Z,72.90
2023-01-31T04:35:32.055Z,72.90
2023-01-31T04:39:14.570Z,72.90
2023-01-31T04:42:56.153Z,72.90
2023-01-31T04:46:37.870Z,72.90
2023-01-31T04:50:19.487Z,72.90
2023-01-31T04:54:01.678Z,72.90
2023-01-31T04:57:43.363Z,72.90
2023-01-31T05:01:25.513Z,72.90
2023-01-31T05:05:08.217Z,72.90
2023-01-31T05:08:49.968Z,72.90
2023-01-31T05:12:31.790Z,72.90
2023-01-31T05:16:14.125Z,72.90
2023-01-31T05:19:56.454Z,72.90
2023-01-31T05:23:38.139Z,72.90
2023-01-31T05:27:19.818Z,72.90
2023-01-31T05:31:05.693Z,72.90
2023-01-31T05:34:47.623Z,72.90
2023-01-31T05:38:29.269Z,72.90
2023-01-31T05:42:10.878Z,72.90
2023-01-31T05:45:52.518Z,72.80
2023-01-31T05:49:34.471Z,72.90
2023-01-31T05:53:16.179Z,72.90
2023-01-31T05:56:57.886Z,73.50
2023-01-31T06:00:39.579Z,72.90
2023-01-31T06:04:21.251Z,72.90
2023-01-31T06:08:03.011Z,72.90
2023-01-31T06:11:44.672Z,72.90
2023-01-31T06:15:26.277Z,72.90
2023-01-31T06:19:07.967Z,72.90
2023-01-31T06:22:49.567Z,72.90
2023-01-31T06:26:31.232Z,72.90
2023-01-31T06:30:13.597Z,72.90
2023-01-31T06:33:55.183Z,72.90
2023-01-31T06:37:36.777Z,72.90
2023-01-31T06:41:19.250Z,72.90
2023-01-31T06:45:00.914Z,72.90
2023-01-31T06:48:42.662Z,72.90
2023-01-31T06:52:24.264Z,72.90
2023-01-31T06:56:06.197Z,72.90
2023-01-31T06:59:47.804Z,72.90
2023-01-31T07:03:29.386Z,72.90
2023-01-31T07:07:11.226Z,72.90
2023-01-31T07:10:53.428Z,72.90
2023-01-31T07:14:35.285Z,72.90
2023-01-31T07:18:16.942Z,72.90
2023-01-31T07:21:58.535Z,72.90
2023-01-31T07:25:40.130Z,72.90
2023-01-31T07:29:21.726Z,72.90
2023-01-31T07:33:03.434Z,72.90
2023-01-31T07:36:45.033Z,73.00
2023-01-31T07:40:26.704Z,72.90
2023-01-31T07:44:10.558Z,72.90
2023-01-31T07:47:52.335Z,72.90
2023-01-31T07:51:34.513Z,73.00
2023-01-31T07:55:16.205Z,73.00
2023-01-31T07:58:58.694Z,72.90
2023-01-31T08:02:58.936Z,73.00
2023-01-31T08:06:41.078Z,72.90
2023-01-31T08:10:22.659Z,73.00
2023-01-31T08:14:04.259Z,73.00
2023-01-31T08:17:46.339Z,73.00
2023-01-31T08:21:28.047Z,73.00
2023-01-31T08:25:09.946Z,73.00
2023-01-31T08:28:53.905Z,73.00
2023-01-31T08:32:35.505Z,73.10
2023-01-31T08:36:18.254Z,73.00
2023-01-31T08:39:59.852Z,73.00
2023-01-31T08:43:58.291Z,73.00
2023-01-31T08:47:40.271Z,73.10
2023-01-31T08:51:22.369Z,73.20
2023-01-31T08:55:06.199Z,73.10
2023-01-31T08:58:47.818Z,73.20
2023-01-31T09:02:29.438Z,73.10
2023-01-31T09:06:13.889Z,73.10
2023-01-31T09:09:55.486Z,73.20
2023-01-31T09:13:37.110Z,73.10
2023-01-31T09:17:19.174Z,73.10
2023-01-31T09:21:08.084Z,73.20
2023-01-31T09:24:49.759Z,73.20
2023-01-31T09:28:31.417Z,73.20
2023-01-31T09:32:13.062Z,73.20
2023-01-31T09:35:55.409Z,73.20
2023-01-31T09:39:37.066Z,73.20
2023-01-31T09:43:21.626Z,73.20
2023-01-31T09:47:18.462Z,73.20
2023-01-31T09:51:00.515Z,73.20
2023-01-31T09:54:42.302Z,73.20
2023-01-31T09:58:42.609Z,73.20
2023-01-31T10:02:37.702Z,73.30
2023-01-31T10:06:35.558Z,73.30
2023-01-31T10:10:28.924Z,73.20
2023-01-31T10:14:13.338Z,73.20
2023-01-31T10:17:58.406Z,73.30
2023-01-31T10:21:46.757Z,73.30
2023-01-31T10:25:32.335Z,73.30
2023-01-31T10:29:17.388Z,73.30
2023-01-31T10:33:00.678Z,73.30
2023-01-31T10:36:42.296Z,73.30
2023-01-31T10:40:31.202Z,73.30
2023-01-31T10:44:18.027Z,73.30
2023-01-31T10:48:06.506Z,73.30
2023-01-31T10:51:48.659Z,73.30
2023-01-31T10:55:40.870Z,73.40
2023-01-31T10:59:25.126Z,73.40
2023-01-31T11:03:06.937Z,73.40
2023-01-31T11:06:48.633Z,73.50
2023-01-31T11:10:31.045Z,73.40
2023-01-31T11:14:18.397Z,73.40
2023-01-31T11:18:00.854Z,73.40
2023-01-31T11:21:48.017Z,73.40
2023-01-31T11:25:30.909Z,73.40
2023-01-31T11:29:25.660Z,73.40
2023-01-31T11:33:07.314Z,73.40
2023-01-31T11:36:49.106Z,73.40
2023-01-31T11:40:32.229Z,73.40
2023-01-31T11:44:15.562Z,73.40
2023-01-31T11:47:59.021Z,73.40
2023-01-31T11:51:40.901Z,73.40
2023-01-31T11:55:22.551Z,73.40
2023-01-31T11:59:09.774Z,73.40
2023-01-31T12:02:57.975Z,73.50
2023-01-31T12:06:40.436Z,73.50
2023-01-31T12:10:25.031Z,73.50
2023-01-31T12:14:06.625Z,73.50
2023-01-31T12:17:49.429Z,73.40
2023-01-31T12:21:39.284Z,73.50
2023-01-31T12:25:44.291Z,73.50
2023-01-31T12:29:35.002Z,73.50
2023-01-31T12:33:46.109Z,73.50
2023-01-31T12:37:36.892Z,73.50
2023-01-31T12:41:21.458Z,73.50
2023-01-31T12:45:12.052Z,73.50
2023-01-31T12:49:12.216Z,73.50
2023-01-31T12:53:02.733Z,73.50
2023-01-31T12:56:44.310Z,73.50
2023-01-31T13:00:35.087Z,73.50
2023-01-31T13:04:33.725Z,73.50
2023-01-31T13:08:17.549Z,73.60
2023-01-31T13:12:02.176Z,73.50
2023-01-31T13:15:49.239Z,73.50
2023-01-31T13:19:37.720Z,73.50
2023-01-31T13:23:25.207Z,73.50
2023-01-31T13:27:06.804Z,73.50
2023-01-31T13:31:03.868Z,73.50
2023-01-31T13:35:11.932Z,73.50
2023-01-31T13:38:53.874Z,73.50
2023-01-31T13:42:35.493Z,73.50
2023-01-31T13:46:20.118Z,73.50
2023-01-31T13:50:03.865Z,73.50
2023-01-31T13:53:48.419Z,73.50
2023-01-31T13:57:31.662Z,73.50
2023-01-31T14:01:17.877Z,73.50
2023-01-31T14:05:20.002Z,73.50
2023-01-31T14:09:01.991Z,73.50
2023-01-31T14:12:43.594Z,73.50
2023-01-31T14:16:37.596Z,73.50
2023-01-31T14:20:27.328Z,73.50
2023-01-31T14:24:18.139Z,73.50
2023-01-31T14:28:01.530Z,73.50
2023-01-31T14:31:43.767Z,73.50
2023-01-31T14:35:43.811Z,73.50
2023-01-31T14:39:25.534Z,73.50
2023-01-31T14:43:27.725Z,73.50
2023-01-31T14:47:41.963Z,73.50
2023-01-31T14:51:23.529Z,73.50
2023-01-31T14:55:23.757Z,73.50
2023-01-31T14:59:16.744Z,73.50
2023-01-31T15:03:13.491Z,74.10
2023-01-31T15:06:56.749Z,73.50
2023-01-31T15:10:58.191Z,73.50
2023-01-31T15:14:45.008Z,73.50
2023-01-31T15:18:28.759Z,73.50
2023-01-31T15:22:11.499Z,73.50
2023-01-31T15:25:54.270Z,73.50
2023-01-31T15:29:50.479Z,73.50
2023-01-31T15:33:36.063Z,73.50
2023-01-31T15:37:23.515Z,73.50
2023-01-31T15:41:07.457Z,73.50
2023-01-31T15:44:49.287Z,73.40
2023-01-31T15:48:30.900Z,73.50
2023-01-31T15:52:14.669Z,73.40
2023-01-31T15:55:58.396Z,73.40
2023-01-31T15:59:41.209Z,73.40
2023-01-31T16:03:24.373Z,73.40
2023-01-31T16:07:05.997Z,73.50
2023-01-31T16:10:48.707Z,73.40
2023-01-31T16:14:30.499Z,73.40
2023-01-31T16:18:12.453Z,73.40
2023-01-31T16:21:54.931Z,73.40
2023-01-31T16:25:37.039Z,73.50
2023-01-31T16:29:20.054Z,73.40
2023-01-31T16:33:01.938Z,73.40
2023-01-31T16:36:54.962Z,73.40
2023-01-31T16:40:46.914Z,73.40
2023-01-31T16:44:32.958Z,73.40
2023-01-31T16:48:21.284Z,73.40
2023-01-31T16:52:02.882Z,73.40
2023-01-31T16:55:45.120Z,73.40
2023-01-31T16:59:32.804Z,73.40
2023-01-31T17:03:18.826Z,73.30
2023-01-31T17:07:02.646Z,73.30
2023-01-31T17:10:44.752Z,73.30
2023-01-31T17:14:26.495Z,73.40
2023-01-31T17:18:11.054Z,73.30
2023-01-31T17:21:52.652Z,73.30
2023-01-31T17:25:36.455Z,73.30
2023-01-31T17:29:18.073Z,73.30
2023-01-31T17:33:00.032Z,73.30
2023-01-31T17:36:42.538Z,73.30
2023-01-31T17:40:24.173Z,73.30
2023-01-31T17:44:06.596Z,73.30
2023-01-31T17:47:48.276Z,73.30
2023-01-31T17:51:29.949Z,73.20
2023-01-31T17:55:11.998Z,73.20
2023-01-31T17:58:53.575Z,73.30
2023-01-31T18:02:35.310Z,73.20
2023-01-31T18:06:16.952Z,73.00
2023-01-31T18:09:58.589Z,72.40
2023-01-31T18:13:40.367Z,72.60
2023-01-31T18:17:22.360Z,72.90
2023-01-31T18:21:05.500Z,73.10
2023-01-31T18:24:47.165Z,73.30
2023-01-31T18:28:28.787Z,73.30
2023-01-31T18:32:10.765Z,73.30
2023-01-31T18:35:56.828Z,73.30
2023-01-31T18:39:38.743Z,73.40
2023-01-31T18:43:20.842Z,73.40
2023-01-31T18:47:02.500Z,73.40
2023-01-31T18:50:44.137Z,73.50
2023-01-31T18:54:26.264Z,73.50
2023-01-31T18:58:07.900Z,73.50
2023-01-31T19:01:49.561Z,73.50
2023-01-31T19:05:31.223Z,73.50
2023-01-31T19:09:13.316Z,73.50
2023-01-31T19:12:54.903Z,73.60
2023-01-31T19:16:37.608Z,73.50
2023-01-31T19:20:19.250Z,73.60
2023-01-31T19:24:02.332Z,74.20
2023-01-31T19:27:43.914Z,73.60
2023-01-31T19:31:26.949Z,73.60
2023-01-31T19:35:08.709Z,73.60
2023-01-31T19:38:50.414Z,73.60
2023-01-31T19:42:32.037Z,73.60
2023-01-31T19:46:13.668Z,73.50
2023-01-31T19:49:55.337Z,73.60
2023-01-31T19:53:38.276Z,73.60
2023-01-31T19:57:19.881Z,73.60
2023-01-31T20:01:02.281Z,73.60
2023-01-31T20:04:44.614Z,73.60
2023-01-31T20:08:28.303Z,73.50
2023-01-31T20:12:09.934Z,73.50
2023-01-31T20:15:58.426Z,73.50
2023-01-31T20:19:40.994Z,73.50
2023-01-31T20:23:22.884Z,73.50
2023-01-31T20:27:04.812Z,73.50
2023-01-31T20:30:47.062Z,73.50
2023-01-31T20:34:28.729Z,73.50
2023-01-31T20:38:11.050Z,73.50
2023-01-31T20:41:52.663Z,73.40
2023-01-31T20:45:35.295Z,73.50
2023-01-31T20:49:16.952Z,73.50
2023-01-31T20:52:58.577Z,73.50
2023-01-31T20:56:40.241Z,73.40
2023-01-31T21:00:22.476Z,73.40
2023-01-31T21:04:04.230Z,73.40
2023-01-31T21:07:45.834Z,73.40
2023-01-31T21:11:27.446Z,73.40
2023-01-31T21:15:09.424Z,73.40
2023-01-31T21:18:51.188Z,73.40
2023-01-31T21:22:34.300Z,73.40
2023-01-31T21:26:15.981Z,73.40
2023-01-31T21:29:57.613Z,73.40
2023-01-31T21:33:39.247Z,73.40
2023-01-31T21:37:20.869Z,73.40
2023-01-31T21:41:20.873Z,73.40
2023-01-31T21:45:02.476Z,73.30
2023-01-31T21:48:44.085Z,73.40
2023-01-31T21:52:26.325Z,73.30
2023-01-31T21:56:09.361Z,73.30
2023-01-31T21:59:50.969Z,73.30
2023-01-31T22:03:32.679Z,73.30
2023-01-31T22:07:14.314Z,73.30
2023-01-31T22:11:14.515Z,73.30
2023-01-31T22:14:56.131Z,73.30
2023-01-31T22:18:38.453Z,73.30
2023-01-31T22:22:20.111Z,73.30
2023-01-31T22:26:04.230Z,73.30
2023-01-31T22:29:45.828Z,73.30
2023-01-31T22:33:28.093Z,73.30
2023-01-31T22:37:09.923Z,73.30
2023-01-31T22:40:51.932Z,73.30
2023-01-31T22:44:33.572Z,73.90
2023-01-31T22:48:15.942Z,73.20
2023-01-31T22:51:57.569Z,73.30
2023-01-31T22:55:39.980Z,73.20
2023-01-31T22:59:21.621Z,73.80
2023-01-31T23:03:04.579Z,73.20
2023-01-31T23:06:46.224Z,73.30
2023-01-31T23:10:27.842Z,73.20
2023-01-31T23:14:09.461Z,73.20
2023-01-31T23:17:51.076Z,73.20
2023-01-31T23:21:32.700Z,73.20
2023-01-31T23:25:14.677Z,73.20
2023-01-31T23:28:56.330Z,73.20
2023-01-31T23:32:38.288Z,73.20
2023-01-31T23:36:19.976Z,73.20
2023-01-31T23:40:01.940Z,73.20
2023-01-31T23:43:43.589Z,73.20
2023-01-31T23:47:25.247Z,73.10
2023-01-31T23:51:06.865Z,73.10
2023-01-31T23:54:48.528Z,73.10
2023-01-31T23:58:30.241Z,73.20
